sensor_id;sensor_type;location;lat;lon;timestamp;temperature;humidity
26821;DHT22;37186;51.394;5.454;2024-02-23T00:00:50;8.10;89.10
26821;DHT22;37186;51.394;5.454;2024-02-23T00:03:50;8.10;89.20
26821;DHT22;37186;51.394;5.454;2024-02-23T00:06:51;8.10;89.10
26821;DHT22;37186;51.394;5.454;2024-02-23T00:09:52;8.10;89.10
26821;DHT22;37186;51.394;5.454;2024-02-23T00:12:52;8.20;88.80
26821;DHT22;37186;51.394;5.454;2024-02-23T00:15:53;8.10;89.00
26821;DHT22;37186;51.394;5.454;2024-02-23T00:18:53;8.20;89.10
26821;DHT22;37186;51.394;5.454;2024-02-23T00:21:54;8.10;88.90
26821;DHT22;37186;51.394;5.454;2024-02-23T00:24:54;8.20;88.90
26821;DHT22;37186;51.394;5.454;2024-02-23T00:27:55;8.20;88.90
26821;DHT22;37186;51.394;5.454;2024-02-23T00:30:55;8.10;88.80
26821;DHT22;37186;51.394;5.454;2024-02-23T00:33:56;8.10;88.60
26821;DHT22;37186;51.394;5.454;2024-02-23T00:36:57;8.10;88.80
26821;DHT22;37186;51.394;5.454;2024-02-23T00:39:57;8.10;88.90
26821;DHT22;37186;51.394;5.454;2024-02-23T00:42:58;8.10;88.90
26821;DHT22;37186;51.394;5.454;2024-02-23T00:46:00;8.10;88.80
26821;DHT22;37186;51.394;5.454;2024-02-23T00:49:01;8.10;89.10
26821;DHT22;37186;51.394;5.454;2024-02-23T00:52:02;8.10;88.70
26821;DHT22;37186;51.394;5.454;2024-02-23T00:55:03;8.10;88.70
26821;DHT22;37186;51.394;5.454;2024-02-23T00:58:04;8.10;88.70
26821;DHT22;37186;51.394;5.454;2024-02-23T01:01:05;8.10;88.70
26821;DHT22;37186;51.394;5.454;2024-02-23T01:04:05;8.10;88.70
26821;DHT22;37186;51.394;5.454;2024-02-23T01:07:06;8.10;88.60
26821;DHT22;37186;51.394;5.454;2024-02-23T01:10:07;8.10;88.60
26821;DHT22;37186;51.394;5.454;2024-02-23T01:13:07;8.00;88.70
26821;DHT22;37186;51.394;5.454;2024-02-23T01:16:08;8.00;88.70
26821;DHT22;37186;51.394;5.454;2024-02-23T01:19:08;8.00;88.80
26821;DHT22;37186;51.394;5.454;2024-02-23T01:22:09;8.00;88.60
26821;DHT22;37186;51.394;5.454;2024-02-23T01:25:10;8.00;88.70
26821;DHT22;37186;51.394;5.454;2024-02-23T01:28:10;8.00;88.50
26821;DHT22;37186;51.394;5.454;2024-02-23T01:31:11;8.00;88.70
26821;DHT22;37186;51.394;5.454;2024-02-23T01:34:12;8.00;88.80
26821;DHT22;37186;51.394;5.454;2024-02-23T01:37:12;8.00;88.60
26821;DHT22;37186;51.394;5.454;2024-02-23T01:40:13;8.00;88.60
26821;DHT22;37186;51.394;5.454;2024-02-23T01:43:13;8.00;88.50
26821;DHT22;37186;51.394;5.454;2024-02-23T01:46:14;8.00;88.50
26821;DHT22;37186;51.394;5.454;2024-02-23T01:49:20;8.00;88.50
26821;DHT22;37186;51.394;5.454;2024-02-23T01:52:21;8.00;88.50
26821;DHT22;37186;51.394;5.454;2024-02-23T01:55:22;7.90;88.70
26821;DHT22;37186;51.394;5.454;2024-02-23T01:58:24;8.00;88.70
26821;DHT22;37186;51.394;5.454;2024-02-23T02:01:25;7.90;88.70
26821;DHT22;37186;51.394;5.454;2024-02-23T02:04:26;8.00;88.50
26821;DHT22;37186;51.394;5.454;2024-02-23T02:07:27;7.90;88.30
26821;DHT22;37186;51.394;5.454;2024-02-23T02:10:27;8.00;88.30
26821;DHT22;37186;51.394;5.454;2024-02-23T02:13:28;7.90;88.30
26821;DHT22;37186;51.394;5.454;2024-02-23T02:16:29;7.90;88.40
26821;DHT22;37186;51.394;5.454;2024-02-23T02:19:30;8.00;88.10
26821;DHT22;37186;51.394;5.454;2024-02-23T02:22:32;7.90;88.00
26821;DHT22;37186;51.394;5.454;2024-02-23T02:25:33;7.90;88.10
26821;DHT22;37186;51.394;5.454;2024-02-23T02:28:33;7.90;88.10
26821;DHT22;37186;51.394;5.454;2024-02-23T02:31:34;7.90;87.90
26821;DHT22;37186;51.394;5.454;2024-02-23T02:34:37;7.90;88.10
26821;DHT22;37186;51.394;5.454;2024-02-23T02:37:38;7.80;87.80
26821;DHT22;37186;51.394;5.454;2024-02-23T02:40:39;7.80;88.00
26821;DHT22;37186;51.394;5.454;2024-02-23T02:43:39;7.80;88.20
26821;DHT22;37186;51.394;5.454;2024-02-23T02:46:41;7.80;88.20
26821;DHT22;37186;51.394;5.454;2024-02-23T02:49:41;7.80;88.30
26821;DHT22;37186;51.394;5.454;2024-02-23T02:52:42;7.80;88.30
26821;DHT22;37186;51.394;5.454;2024-02-23T02:55:43;7.80;88.30
26821;DHT22;37186;51.394;5.454;2024-02-23T02:58:44;7.80;88.30
26821;DHT22;37186;51.394;5.454;2024-02-23T03:01:44;7.80;88.30
26821;DHT22;37186;51.394;5.454;2024-02-23T03:04:49;7.80;88.20
26821;DHT22;37186;51.394;5.454;2024-02-23T03:07:50;7.80;88.40
26821;DHT22;37186;51.394;5.454;2024-02-23T03:10:50;7.70;88.30
26821;DHT22;37186;51.394;5.454;2024-02-23T03:13:51;7.80;88.30
26821;DHT22;37186;51.394;5.454;2024-02-23T03:16:51;7.80;88.10
26821;DHT22;37186;51.394;5.454;2024-02-23T03:19:52;7.80;88.10
26821;DHT22;37186;51.394;5.454;2024-02-23T03:22:52;7.70;88.20
26821;DHT22;37186;51.394;5.454;2024-02-23T03:25:53;7.80;88.20
26821;DHT22;37186;51.394;5.454;2024-02-23T03:28:54;7.70;88.10
26821;DHT22;37186;51.394;5.454;2024-02-23T03:31:55;7.70;88.10
26821;DHT22;37186;51.394;5.454;2024-02-23T03:34:56;7.70;88.30
26821;DHT22;37186;51.394;5.454;2024-02-23T03:37:56;7.70;88.00
26821;DHT22;37186;51.394;5.454;2024-02-23T03:40:57;7.70;88.20
26821;DHT22;37186;51.394;5.454;2024-02-23T03:43:57;7.70;88.00
26821;DHT22;37186;51.394;5.454;2024-02-23T03:46:59;7.70;88.10
26821;DHT22;37186;51.394;5.454;2024-02-23T03:49:59;7.70;88.10
26821;DHT22;37186;51.394;5.454;2024-02-23T03:53:00;7.70;88.10
26821;DHT22;37186;51.394;5.454;2024-02-23T03:56:00;7.80;88.20
26821;DHT22;37186;51.394;5.454;2024-02-23T03:59:01;7.70;88.30
26821;DHT22;37186;51.394;5.454;2024-02-23T04:02:01;7.70;88.30
26821;DHT22;37186;51.394;5.454;2024-02-23T04:05:02;7.70;88.30
26821;DHT22;37186;51.394;5.454;2024-02-23T04:08:03;7.70;88.10
26821;DHT22;37186;51.394;5.454;2024-02-23T04:11:03;7.70;88.10
26821;DHT22;37186;51.394;5.454;2024-02-23T04:14:04;7.70;88.20
26821;DHT22;37186;51.394;5.454;2024-02-23T04:17:07;7.70;88.20
26821;DHT22;37186;51.394;5.454;2024-02-23T04:20:08;7.70;88.10
26821;DHT22;37186;51.394;5.454;2024-02-23T04:23:12;7.70;88.20
26821;DHT22;37186;51.394;5.454;2024-02-23T04:26:13;7.70;88.10
26821;DHT22;37186;51.394;5.454;2024-02-23T04:29:13;7.70;88.10
26821;DHT22;37186;51.394;5.454;2024-02-23T04:32:17;7.70;88.20
26821;DHT22;37186;51.394;5.454;2024-02-23T04:35:17;7.70;88.20
26821;DHT22;37186;51.394;5.454;2024-02-23T04:38:18;7.70;88.20
26821;DHT22;37186;51.394;5.454;2024-02-23T04:41:21;7.70;88.30
26821;DHT22;37186;51.394;5.454;2024-02-23T04:44:22;7.70;88.00
26821;DHT22;37186;51.394;5.454;2024-02-23T04:47:23;7.70;88.10
26821;DHT22;37186;51.394;5.454;2024-02-23T04:50:23;7.70;88.00
26821;DHT22;37186;51.394;5.454;2024-02-23T04:53:24;7.70;88.00
26821;DHT22;37186;51.394;5.454;2024-02-23T04:56:25;7.70;88.10
26821;DHT22;37186;51.394;5.454;2024-02-23T04:59:25;7.70;88.20
26821;DHT22;37186;51.394;5.454;2024-02-23T05:02:25;7.70;88.30
26821;DHT22;37186;51.394;5.454;2024-02-23T05:05:32;7.70;88.20
26821;DHT22;37186;51.394;5.454;2024-02-23T05:08:33;7.80;88.20
26821;DHT22;37186;51.394;5.454;2024-02-23T05:11:33;7.80;88.30
26821;DHT22;37186;51.394;5.454;2024-02-23T05:14:34;7.80;88.20
26821;DHT22;37186;51.394;5.454;2024-02-23T05:17:34;7.80;88.30
26821;DHT22;37186;51.394;5.454;2024-02-23T05:20:35;7.80;88.30
26821;DHT22;37186;51.394;5.454;2024-02-23T05:23:36;7.80;88.30
26821;DHT22;37186;51.394;5.454;2024-02-23T05:26:36;7.80;88.30
26821;DHT22;37186;51.394;5.454;2024-02-23T05:29:37;7.80;88.30
26821;DHT22;37186;51.394;5.454;2024-02-23T05:32:37;7.90;88.40
26821;DHT22;37186;51.394;5.454;2024-02-23T05:35:38;7.90;88.30
26821;DHT22;37186;51.394;5.454;2024-02-23T05:38:38;7.80;88.30
26821;DHT22;37186;51.394;5.454;2024-02-23T05:41:39;7.80;88.40
26821;DHT22;37186;51.394;5.454;2024-02-23T05:44:40;7.90;88.30
26821;DHT22;37186;51.394;5.454;2024-02-23T05:47:43;7.90;88.10
26821;DHT22;37186;51.394;5.454;2024-02-23T05:50:43;7.90;88.10
26821;DHT22;37186;51.394;5.454;2024-02-23T05:53:44;7.90;88.10
26821;DHT22;37186;51.394;5.454;2024-02-23T05:56:45;7.90;88.10
26821;DHT22;37186;51.394;5.454;2024-02-23T05:59:46;7.90;88.10
26821;DHT22;37186;51.394;5.454;2024-02-23T06:02:46;7.90;88.10
26821;DHT22;37186;51.394;5.454;2024-02-23T06:05:47;7.90;87.70
26821;DHT22;37186;51.394;5.454;2024-02-23T06:08:48;7.90;87.40
26821;DHT22;37186;51.394;5.454;2024-02-23T06:11:50;7.90;87.60
26821;DHT22;37186;51.394;5.454;2024-02-23T06:14:51;7.90;87.80
26821;DHT22;37186;51.394;5.454;2024-02-23T06:17:52;7.90;87.80
26821;DHT22;37186;51.394;5.454;2024-02-23T06:20:52;7.90;87.70
26821;DHT22;37186;51.394;5.454;2024-02-23T06:23:53;7.90;87.80
26821;DHT22;37186;51.394;5.454;2024-02-23T06:26:53;7.90;87.70
26821;DHT22;37186;51.394;5.454;2024-02-23T06:29:54;7.90;87.50
26821;DHT22;37186;51.394;5.454;2024-02-23T06:32:56;7.90;87.40
26821;DHT22;37186;51.394;5.454;2024-02-23T06:35:56;7.90;87.30
26821;DHT22;37186;51.394;5.454;2024-02-23T06:38:57;7.90;87.20
26821;DHT22;37186;51.394;5.454;2024-02-23T06:41:57;7.90;87.30
26821;DHT22;37186;51.394;5.454;2024-02-23T06:45:00;7.90;88.20
26821;DHT22;37186;51.394;5.454;2024-02-23T06:48:01;8.00;87.40
26821;DHT22;37186;51.394;5.454;2024-02-23T06:51:03;8.00;87.20
26821;DHT22;37186;51.394;5.454;2024-02-23T06:54:04;7.90;87.30
26821;DHT22;37186;51.394;5.454;2024-02-23T06:57:04;8.00;87.00
26821;DHT22;37186;51.394;5.454;2024-02-23T07:00:07;8.00;87.10
26821;DHT22;37186;51.394;5.454;2024-02-23T07:03:08;8.00;86.70
26821;DHT22;37186;51.394;5.454;2024-02-23T07:06:08;8.00;86.90
26821;DHT22;37186;51.394;5.454;2024-02-23T07:09:12;8.00;87.10
26821;DHT22;37186;51.394;5.454;2024-02-23T07:12:13;8.00;87.20
26821;DHT22;37186;51.394;5.454;2024-02-23T07:15:14;7.90;87.20
26821;DHT22;37186;51.394;5.454;2024-02-23T07:18:15;8.00;86.50
26821;DHT22;37186;51.394;5.454;2024-02-23T07:21:19;8.00;87.10
26821;DHT22;37186;51.394;5.454;2024-02-23T07:24:20;8.00;86.70
26821;DHT22;37186;51.394;5.454;2024-02-23T07:27:20;8.00;86.80
26821;DHT22;37186;51.394;5.454;2024-02-23T07:30:21;8.00;86.90
26821;DHT22;37186;51.394;5.454;2024-02-23T07:33:21;8.00;86.70
26821;DHT22;37186;51.394;5.454;2024-02-23T07:36:22;8.00;86.80
26821;DHT22;37186;51.394;5.454;2024-02-23T07:39:22;8.00;86.70
26821;DHT22;37186;51.394;5.454;2024-02-23T07:42:23;8.00;86.90
26821;DHT22;37186;51.394;5.454;2024-02-23T07:45:23;8.00;86.90
26821;DHT22;37186;51.394;5.454;2024-02-23T07:48:24;8.00;86.90
26821;DHT22;37186;51.394;5.454;2024-02-23T07:51:24;8.00;86.60
26821;DHT22;37186;51.394;5.454;2024-02-23T07:54:25;8.00;86.70
26821;DHT22;37186;51.394;5.454;2024-02-23T07:57:25;8.00;86.80
26821;DHT22;37186;51.394;5.454;2024-02-23T08:00:26;8.00;86.30
26821;DHT22;37186;51.394;5.454;2024-02-23T08:03:26;8.10;86.60
26821;DHT22;37186;51.394;5.454;2024-02-23T08:06:27;8.10;86.60
26821;DHT22;37186;51.394;5.454;2024-02-23T08:09:27;8.10;87.10
26821;DHT22;37186;51.394;5.454;2024-02-23T08:12:28;8.10;86.90
26821;DHT22;37186;51.394;5.454;2024-02-23T08:15:29;8.10;86.80
26821;DHT22;37186;51.394;5.454;2024-02-23T08:18:29;8.10;87.00
26821;DHT22;37186;51.394;5.454;2024-02-23T08:21:30;8.10;87.20
26821;DHT22;37186;51.394;5.454;2024-02-23T08:24:30;8.20;86.60
26821;DHT22;37186;51.394;5.454;2024-02-23T08:27:31;8.20;87.10
26821;DHT22;37186;51.394;5.454;2024-02-23T08:30:32;8.20;87.00
26821;DHT22;37186;51.394;5.454;2024-02-23T08:33:33;8.20;86.90
26821;DHT22;37186;51.394;5.454;2024-02-23T08:36:34;8.30;87.10
26821;DHT22;37186;51.394;5.454;2024-02-23T08:39:34;8.30;87.10
26821;DHT22;37186;51.394;5.454;2024-02-23T08:42:37;8.30;86.90
26821;DHT22;37186;51.394;5.454;2024-02-23T08:45:38;8.30;86.70
26821;DHT22;37186;51.394;5.454;2024-02-23T08:48:38;8.30;86.80
26821;DHT22;37186;51.394;5.454;2024-02-23T08:51:39;8.40;86.80
26821;DHT22;37186;51.394;5.454;2024-02-23T08:54:39;8.40;86.70
26821;DHT22;37186;51.394;5.454;2024-02-23T08:57:40;8.40;87.00
26821;DHT22;37186;51.394;5.454;2024-02-23T09:00:40;8.40;87.10
26821;DHT22;37186;51.394;5.454;2024-02-23T09:03:41;8.40;87.20
26821;DHT22;37186;51.394;5.454;2024-02-23T09:06:41;8.40;87.10
26821;DHT22;37186;51.394;5.454;2024-02-23T09:09:42;8.50;86.90
26821;DHT22;37186;51.394;5.454;2024-02-23T09:12:42;8.50;87.20
26821;DHT22;37186;51.394;5.454;2024-02-23T09:15:43;8.50;86.70
26821;DHT22;37186;51.394;5.454;2024-02-23T09:18:44;8.60;86.90
26821;DHT22;37186;51.394;5.454;2024-02-23T09:21:45;8.60;87.10
26821;DHT22;37186;51.394;5.454;2024-02-23T09:24:45;8.60;86.60
26821;DHT22;37186;51.394;5.454;2024-02-23T09:27:46;8.60;86.60
26821;DHT22;37186;51.394;5.454;2024-02-23T09:30:46;8.70;86.20
26821;DHT22;37186;51.394;5.454;2024-02-23T09:33:47;8.60;86.50
26821;DHT22;37186;51.394;5.454;2024-02-23T09:36:49;8.70;87.60
26821;DHT22;37186;51.394;5.454;2024-02-23T09:39:50;8.70;86.80
26821;DHT22;37186;51.394;5.454;2024-02-23T09:42:55;8.80;86.70
26821;DHT22;37186;51.394;5.454;2024-02-23T09:45:57;8.80;86.00
26821;DHT22;37186;51.394;5.454;2024-02-23T09:48:58;8.80;86.20
26821;DHT22;37186;51.394;5.454;2024-02-23T09:51:59;8.80;86.50
26821;DHT22;37186;51.394;5.454;2024-02-23T09:55:01;8.80;86.70
26821;DHT22;37186;51.394;5.454;2024-02-23T09:58:04;8.80;86.60
26821;DHT22;37186;51.394;5.454;2024-02-23T10:01:06;8.80;86.40
26821;DHT22;37186;51.394;5.454;2024-02-23T10:04:07;8.80;86.60
26821;DHT22;37186;51.394;5.454;2024-02-23T10:07:08;8.80;86.70
26821;DHT22;37186;51.394;5.454;2024-02-23T10:10:09;8.80;86.70
26821;DHT22;37186;51.394;5.454;2024-02-23T10:13:11;8.80;86.40
26821;DHT22;37186;51.394;5.454;2024-02-23T10:16:11;8.80;86.60
26821;DHT22;37186;51.394;5.454;2024-02-23T10:19:12;8.90;86.50
26821;DHT22;37186;51.394;5.454;2024-02-23T10:22:12;8.90;86.60
26821;DHT22;37186;51.394;5.454;2024-02-23T10:25:13;8.80;86.20
26821;DHT22;37186;51.394;5.454;2024-02-23T10:28:15;8.90;86.60
26821;DHT22;37186;51.394;5.454;2024-02-23T10:31:16;8.80;86.50
26821;DHT22;37186;51.394;5.454;2024-02-23T10:34:19;8.90;86.10
26821;DHT22;37186;51.394;5.454;2024-02-23T10:37:22;8.90;86.50
26821;DHT22;37186;51.394;5.454;2024-02-23T10:40:24;8.90;86.80
26821;DHT22;37186;51.394;5.454;2024-02-23T10:43:33;8.90;87.00
26821;DHT22;37186;51.394;5.454;2024-02-23T10:46:37;8.90;87.00
26821;DHT22;37186;51.394;5.454;2024-02-23T10:49:38;9.00;87.20
26821;DHT22;37186;51.394;5.454;2024-02-23T10:52:42;9.00;87.20
26821;DHT22;37186;51.394;5.454;2024-02-23T10:55:43;9.00;86.90
26821;DHT22;37186;51.394;5.454;2024-02-23T10:58:45;9.00;87.10
26821;DHT22;37186;51.394;5.454;2024-02-23T11:01:48;9.10;87.30
26821;DHT22;37186;51.394;5.454;2024-02-23T11:04:50;9.10;87.10
26821;DHT22;37186;51.394;5.454;2024-02-23T11:07:51;9.10;86.80
26821;DHT22;37186;51.394;5.454;2024-02-23T11:10:52;9.10;87.90
26821;DHT22;37186;51.394;5.454;2024-02-23T11:13:55;9.20;87.20
26821;DHT22;37186;51.394;5.454;2024-02-23T11:16:57;9.10;87.10
26821;DHT22;37186;51.394;5.454;2024-02-23T11:19:58;9.20;87.30
26821;DHT22;37186;51.394;5.454;2024-02-23T11:23:13;9.20;86.90
26821;DHT22;37186;51.394;5.454;2024-02-23T11:26:14;9.20;86.40
26821;DHT22;37186;51.394;5.454;2024-02-23T11:29:15;9.20;86.80
26821;DHT22;37186;51.394;5.454;2024-02-23T11:32:16;9.30;86.60
26821;DHT22;37186;51.394;5.454;2024-02-23T11:35:17;9.30;86.60
26821;DHT22;37186;51.394;5.454;2024-02-23T11:38:21;9.30;86.90
26821;DHT22;37186;51.394;5.454;2024-02-23T11:41:24;9.30;86.70
26821;DHT22;37186;51.394;5.454;2024-02-23T11:44:25;9.30;86.80
26821;DHT22;37186;51.394;5.454;2024-02-23T11:47:25;9.30;86.90
26821;DHT22;37186;51.394;5.454;2024-02-23T11:50:26;9.30;86.70
26821;DHT22;37186;51.394;5.454;2024-02-23T11:53:26;9.30;86.60
26821;DHT22;37186;51.394;5.454;2024-02-23T11:56:29;9.40;86.20
26821;DHT22;37186;51.394;5.454;2024-02-23T11:59:29;9.30;86.40
26821;DHT22;37186;51.394;5.454;2024-02-23T12:02:30;9.40;86.10
26821;DHT22;37186;51.394;5.454;2024-02-23T12:05:30;9.40;86.50
26821;DHT22;37186;51.394;5.454;2024-02-23T12:08:32;9.40;86.50
26821;DHT22;37186;51.394;5.454;2024-02-23T12:11:39;9.40;86.30
26821;DHT22;37186;51.394;5.454;2024-02-23T12:14:40;9.40;86.30
26821;DHT22;37186;51.394;5.454;2024-02-23T12:17:48;9.30;86.70
26821;DHT22;37186;51.394;5.454;2024-02-23T12:20:49;9.40;86.20
26821;DHT22;37186;51.394;5.454;2024-02-23T12:23:50;9.40;86.60
26821;DHT22;37186;51.394;5.454;2024-02-23T12:26:54;9.40;86.40
26821;DHT22;37186;51.394;5.454;2024-02-23T12:29:55;9.40;86.10
26821;DHT22;37186;51.394;5.454;2024-02-23T12:33:08;9.40;86.30
26821;DHT22;37186;51.394;5.454;2024-02-23T12:36:10;9.50;86.60
26821;DHT22;37186;51.394;5.454;2024-02-23T12:39:10;9.50;86.50
26821;DHT22;37186;51.394;5.454;2024-02-23T12:42:11;9.50;86.40
26821;DHT22;37186;51.394;5.454;2024-02-23T12:45:12;9.50;86.70
26821;DHT22;37186;51.394;5.454;2024-02-23T12:48:13;9.50;86.30
26821;DHT22;37186;51.394;5.454;2024-02-23T12:51:13;9.60;86.50
26821;DHT22;37186;51.394;5.454;2024-02-23T12:54:14;9.60;86.40
26821;DHT22;37186;51.394;5.454;2024-02-23T12:57:14;9.70;86.60
26821;DHT22;37186;51.394;5.454;2024-02-23T13:00:15;9.70;86.60
26821;DHT22;37186;51.394;5.454;2024-02-23T13:03:16;9.80;86.60
26821;DHT22;37186;51.394;5.454;2024-02-23T13:06:16;9.80;86.70
26821;DHT22;37186;51.394;5.454;2024-02-23T13:09:17;9.80;87.70
26821;DHT22;37186;51.394;5.454;2024-02-23T13:12:17;9.80;86.90
26821;DHT22;37186;51.394;5.454;2024-02-23T13:15:18;9.90;85.90
26821;DHT22;37186;51.394;5.454;2024-02-23T13:18:18;9.90;86.50
26821;DHT22;37186;51.394;5.454;2024-02-23T13:21:19;9.90;86.60
26821;DHT22;37186;51.394;5.454;2024-02-23T13:24:20;9.90;86.50
26821;DHT22;37186;51.394;5.454;2024-02-23T13:27:21;9.90;86.40
26821;DHT22;37186;51.394;5.454;2024-02-23T13:30:21;10.00;86.60
26821;DHT22;37186;51.394;5.454;2024-02-23T13:33:22;10.00;86.60
26821;DHT22;37186;51.394;5.454;2024-02-23T13:36:24;10.00;86.30
26821;DHT22;37186;51.394;5.454;2024-02-23T13:39:24;10.00;86.20
26821;DHT22;37186;51.394;5.454;2024-02-23T13:42:25;10.00;86.30
26821;DHT22;37186;51.394;5.454;2024-02-23T13:45:26;10.00;86.40
26821;DHT22;37186;51.394;5.454;2024-02-23T13:48:26;10.00;85.50
26821;DHT22;37186;51.394;5.454;2024-02-23T13:51:27;10.00;86.10
26821;DHT22;37186;51.394;5.454;2024-02-23T13:54:27;10.00;86.40
26821;DHT22;37186;51.394;5.454;2024-02-23T13:57:28;10.00;86.20
26821;DHT22;37186;51.394;5.454;2024-02-23T14:00:29;10.00;86.20
26821;DHT22;37186;51.394;5.454;2024-02-23T14:03:29;10.10;85.90
26821;DHT22;37186;51.394;5.454;2024-02-23T14:06:30;10.10;86.00
26821;DHT22;37186;51.394;5.454;2024-02-23T14:09:31;10.10;86.00
26821;DHT22;37186;51.394;5.454;2024-02-23T14:12:31;10.10;86.00
26821;DHT22;37186;51.394;5.454;2024-02-23T14:15:32;10.10;85.40
26821;DHT22;37186;51.394;5.454;2024-02-23T14:18:33;10.10;86.00
26821;DHT22;37186;51.394;5.454;2024-02-23T14:21:37;10.10;85.90
26821;DHT22;37186;51.394;5.454;2024-02-23T14:24:37;10.10;86.00
26821;DHT22;37186;51.394;5.454;2024-02-23T14:27:38;10.10;86.40
26821;DHT22;37186;51.394;5.454;2024-02-23T14:30:38;10.10;86.00
26821;DHT22;37186;51.394;5.454;2024-02-23T14:33:40;10.10;86.00
26821;DHT22;37186;51.394;5.454;2024-02-23T14:36:41;10.10;86.10
26821;DHT22;37186;51.394;5.454;2024-02-23T14:39:41;10.10;86.20
26821;DHT22;37186;51.394;5.454;2024-02-23T14:42:42;10.10;86.00
26821;DHT22;37186;51.394;5.454;2024-02-23T14:45:43;10.10;86.20
26821;DHT22;37186;51.394;5.454;2024-02-23T14:48:43;10.20;86.60
26821;DHT22;37186;51.394;5.454;2024-02-23T14:51:47;10.20;86.40
26821;DHT22;37186;51.394;5.454;2024-02-23T14:54:48;10.20;86.00
26821;DHT22;37186;51.394;5.454;2024-02-23T14:57:49;10.20;86.10
26821;DHT22;37186;51.394;5.454;2024-02-23T15:00:49;10.20;85.90
26821;DHT22;37186;51.394;5.454;2024-02-23T15:03:50;10.20;86.40
26821;DHT22;37186;51.394;5.454;2024-02-23T15:06:51;10.20;86.00
26821;DHT22;37186;51.394;5.454;2024-02-23T15:09:51;10.30;85.30
26821;DHT22;37186;51.394;5.454;2024-02-23T15:12:52;10.20;85.90
26821;DHT22;37186;51.394;5.454;2024-02-23T15:15:53;10.20;85.80
26821;DHT22;37186;51.394;5.454;2024-02-23T15:18:54;10.20;85.60
26821;DHT22;37186;51.394;5.454;2024-02-23T15:21:55;10.20;85.60
26821;DHT22;37186;51.394;5.454;2024-02-23T15:24:56;10.20;85.90
26821;DHT22;37186;51.394;5.454;2024-02-23T15:27:59;10.20;86.10
26821;DHT22;37186;51.394;5.454;2024-02-23T15:31:01;10.30;86.10
26821;DHT22;37186;51.394;5.454;2024-02-23T15:34:03;10.20;86.20
26821;DHT22;37186;51.394;5.454;2024-02-23T15:37:04;10.30;86.10
26821;DHT22;37186;51.394;5.454;2024-02-23T15:40:04;10.30;85.90
26821;DHT22;37186;51.394;5.454;2024-02-23T15:43:05;10.30;85.50
26821;DHT22;37186;51.394;5.454;2024-02-23T15:46:09;10.30;85.60
26821;DHT22;37186;51.394;5.454;2024-02-23T15:49:09;10.30;85.60
26821;DHT22;37186;51.394;5.454;2024-02-23T15:52:10;10.30;85.70
26821;DHT22;37186;51.394;5.454;2024-02-23T15:55:10;10.30;85.90
26821;DHT22;37186;51.394;5.454;2024-02-23T15:58:12;10.30;85.90
26821;DHT22;37186;51.394;5.454;2024-02-23T16:01:16;10.30;85.50
26821;DHT22;37186;51.394;5.454;2024-02-23T16:04:17;10.30;86.00
26821;DHT22;37186;51.394;5.454;2024-02-23T16:07:17;10.30;85.50
26821;DHT22;37186;51.394;5.454;2024-02-23T16:10:18;10.30;85.50
26821;DHT22;37186;51.394;5.454;2024-02-23T16:13:18;10.30;85.60
26821;DHT22;37186;51.394;5.454;2024-02-23T16:16:19;10.30;85.70
26821;DHT22;37186;51.394;5.454;2024-02-23T16:19:19;10.30;85.90
26821;DHT22;37186;51.394;5.454;2024-02-23T16:22:21;10.30;85.10
26821;DHT22;37186;51.394;5.454;2024-02-23T16:25:23;10.30;85.40
26821;DHT22;37186;51.394;5.454;2024-02-23T16:28:24;10.20;85.00
26821;DHT22;37186;51.394;5.454;2024-02-23T16:31:24;10.20;85.10
26821;DHT22;37186;51.394;5.454;2024-02-23T16:34:25;10.20;85.90
26821;DHT22;37186;51.394;5.454;2024-02-23T16:37:25;10.20;85.80
26821;DHT22;37186;51.394;5.454;2024-02-23T16:40:27;10.30;86.00
26821;DHT22;37186;51.394;5.454;2024-02-23T16:43:28;10.20;85.90
26821;DHT22;37186;51.394;5.454;2024-02-23T16:46:29;10.20;86.00
26821;DHT22;37186;51.394;5.454;2024-02-23T16:49:29;10.30;86.90
26821;DHT22;37186;51.394;5.454;2024-02-23T16:52:30;10.20;86.00
26821;DHT22;37186;51.394;5.454;2024-02-23T16:55:31;10.20;86.00
26821;DHT22;37186;51.394;5.454;2024-02-23T16:58:32;10.20;86.00
26821;DHT22;37186;51.394;5.454;2024-02-23T17:01:38;10.20;86.10
26821;DHT22;37186;51.394;5.454;2024-02-23T17:04:39;10.20;86.00
26821;DHT22;37186;51.394;5.454;2024-02-23T17:07:40;10.20;86.00
26821;DHT22;37186;51.394;5.454;2024-02-23T17:10:41;10.20;86.10
26821;DHT22;37186;51.394;5.454;2024-02-23T17:13:41;10.20;86.00
26821;DHT22;37186;51.394;5.454;2024-02-23T17:16:43;10.20;85.70
26821;DHT22;37186;51.394;5.454;2024-02-23T17:19:45;10.20;85.60
26821;DHT22;37186;51.394;5.454;2024-02-23T17:22:45;10.20;85.70
26821;DHT22;37186;51.394;5.454;2024-02-23T17:25:47;10.20;85.70
26821;DHT22;37186;51.394;5.454;2024-02-23T17:28:48;10.20;86.00
26821;DHT22;37186;51.394;5.454;2024-02-23T17:31:48;10.10;85.90
26821;DHT22;37186;51.394;5.454;2024-02-23T17:34:49;10.10;85.90
26821;DHT22;37186;51.394;5.454;2024-02-23T17:37:49;10.10;85.90
26821;DHT22;37186;51.394;5.454;2024-02-23T17:40:50;10.10;85.60
26821;DHT22;37186;51.394;5.454;2024-02-23T17:43:53;10.10;85.40
26821;DHT22;37186;51.394;5.454;2024-02-23T17:46:54;10.10;85.90
26821;DHT22;37186;51.394;5.454;2024-02-23T17:49:55;10.10;86.00
26821;DHT22;37186;51.394;5.454;2024-02-23T17:52:55;10.00;86.80
26821;DHT22;37186;51.394;5.454;2024-02-23T17:55:56;10.00;86.10
26821;DHT22;37186;51.394;5.454;2024-02-23T17:58:57;10.00;86.00
26821;DHT22;37186;51.394;5.454;2024-02-23T18:01:58;10.00;86.00
26821;DHT22;37186;51.394;5.454;2024-02-23T18:04:58;10.00;86.10
26821;DHT22;37186;51.394;5.454;2024-02-23T18:07:59;10.00;86.10
26821;DHT22;37186;51.394;5.454;2024-02-23T18:10:59;10.00;86.10
26821;DHT22;37186;51.394;5.454;2024-02-23T18:14:00;10.00;86.20
26821;DHT22;37186;51.394;5.454;2024-02-23T18:17:00;9.90;86.90
26821;DHT22;37186;51.394;5.454;2024-02-23T18:20:04;9.90;86.20
26821;DHT22;37186;51.394;5.454;2024-02-23T18:23:05;9.90;86.10
26821;DHT22;37186;51.394;5.454;2024-02-23T18:26:05;9.90;86.10
26821;DHT22;37186;51.394;5.454;2024-02-23T18:29:06;9.90;86.10
26821;DHT22;37186;51.394;5.454;2024-02-23T18:32:06;9.90;86.10
26821;DHT22;37186;51.394;5.454;2024-02-23T18:35:09;9.90;86.10
26821;DHT22;37186;51.394;5.454;2024-02-23T18:38:10;9.90;86.10
26821;DHT22;37186;51.394;5.454;2024-02-23T18:41:13;9.80;86.10
26821;DHT22;37186;51.394;5.454;2024-02-23T18:44:14;9.80;86.00
26821;DHT22;37186;51.394;5.454;2024-02-23T18:47:15;9.80;86.10
26821;DHT22;37186;51.394;5.454;2024-02-23T18:50:15;9.80;86.10
26821;DHT22;37186;51.394;5.454;2024-02-23T18:53:16;9.70;86.10
26821;DHT22;37186;51.394;5.454;2024-02-23T18:56:16;9.70;86.10
26821;DHT22;37186;51.394;5.454;2024-02-23T18:59:17;9.70;86.20
26821;DHT22;37186;51.394;5.454;2024-02-23T19:02:17;9.70;86.10
26821;DHT22;37186;51.394;5.454;2024-02-23T19:05:18;9.60;86.10
26821;DHT22;37186;51.394;5.454;2024-02-23T19:08:18;9.60;86.20
26821;DHT22;37186;51.394;5.454;2024-02-23T19:11:19;9.60;86.10
26821;DHT22;37186;51.394;5.454;2024-02-23T19:14:19;9.50;86.10
26821;DHT22;37186;51.394;5.454;2024-02-23T19:17:20;9.60;86.20